createdAt,value
2022-07-28T00:01:16.489Z,100840.00
2022-07-28T00:03:48.847Z,100836.59
2022-07-28T00:06:17.285Z,100833.09
2022-07-28T00:08:45.339Z,100832.31
2022-07-28T00:11:15.221Z,100841.09
2022-07-28T00:13:43.118Z,100836.59
2022-07-28T00:16:11.055Z,100836.09
2022-07-28T00:18:39.392Z,100839.97
2022-07-28T00:21:07.651Z,100839.97
2022-07-28T00:23:39.545Z,100837.06
2022-07-28T00:26:09.517Z,100837.91
2022-07-28T00:28:39.640Z,100839.72
2022-07-28T00:31:08.810Z,100835.34
2022-07-28T00:33:40.074Z,100834.75
2022-07-28T00:36:11.466Z,100837.41
2022-07-28T00:38:41.085Z,100830.63
2022-07-28T00:41:12.895Z,100831.00
2022-07-28T00:43:44.514Z,100826.16
2022-07-28T00:46:13.662Z,100831.78
2022-07-28T00:48:44.667Z,100825.31
2022-07-28T00:51:13.375Z,100820.75
2022-07-28T00:53:41.746Z,100824.88
2022-07-28T00:56:10.521Z,100818.41
2022-07-28T00:58:39.763Z,100825.38
2022-07-28T01:01:10.793Z,100819.91
2022-07-28T01:03:41.296Z,100816.13
2022-07-28T01:06:17.655Z,100820.63
2022-07-28T01:08:57.659Z,100817.09
2022-07-28T01:11:41.642Z,100823.44
2022-07-28T01:14:19.933Z,100825.00
2022-07-28T01:16:55.748Z,100824.03
2022-07-28T01:19:40.580Z,100828.66
2022-07-28T01:22:12.666Z,100832.06
2022-07-28T01:24:50.557Z,100829.50
2022-07-28T01:27:31.447Z,100826.81
2022-07-28T01:30:05.944Z,100834.13
2022-07-28T01:32:40.189Z,100837.53
2022-07-28T01:35:13.803Z,100835.81
2022-07-28T01:37:45.523Z,100836.53
2022-07-28T01:40:18.956Z,100837.69
2022-07-28T01:42:49.564Z,100830.16
2022-07-28T01:45:20.283Z,100832.09
2022-07-28T01:47:51.030Z,100841.97
2022-07-28T01:50:22.608Z,100840.59
2022-07-28T01:52:51.909Z,100833.87
2022-07-28T01:55:22.324Z,100833.00
2022-07-28T01:57:51.970Z,100838.00
2022-07-28T02:00:20.559Z,100836.28
2022-07-28T02:02:51.972Z,100836.63
2022-07-28T02:05:22.225Z,100836.97
2022-07-28T02:07:53.565Z,100837.81
2022-07-28T02:10:22.646Z,100840.09
2022-07-28T02:12:53.687Z,100833.78
2022-07-28T02:15:22.806Z,100834.25
2022-07-28T02:17:55.828Z,100829.22
2022-07-28T02:20:23.956Z,100828.59
2022-07-28T02:22:54.019Z,100834.25
2022-07-28T02:25:22.778Z,100833.50
2022-07-28T02:27:54.548Z,100832.91
2022-07-28T02:30:34.153Z,100833.00
2022-07-28T02:33:08.251Z,100830.44
2022-07-28T02:35:45.680Z,100837.31
2022-07-28T02:38:21.945Z,100836.91
2022-07-28T02:40:52.796Z,100835.31
2022-07-28T02:43:27.009Z,100835.22
2022-07-28T02:46:19.485Z,100834.13
2022-07-28T02:48:55.475Z,100842.59
2022-07-28T02:51:25.928Z,100838.62
2022-07-28T02:53:55.230Z,100842.47
2022-07-28T02:56:23.727Z,100845.47
2022-07-28T02:58:53.665Z,100842.91
2022-07-28T03:01:22.366Z,100849.09
2022-07-28T03:03:55.189Z,100849.44
2022-07-28T03:06:25.414Z,100848.69
2022-07-28T03:08:57.337Z,100854.03
2022-07-28T03:11:25.278Z,100852.44
2022-07-28T03:13:53.169Z,100851.69
2022-07-28T03:16:21.618Z,100853.63
2022-07-28T03:18:52.301Z,100860.91
2022-07-28T03:21:20.247Z,100866.66
2022-07-28T03:23:52.425Z,100862.81
2022-07-28T03:26:24.782Z,100871.78
2022-07-28T03:28:53.999Z,100872.00
2022-07-28T03:31:22.756Z,100867.63
2022-07-28T03:33:52.676Z,100870.81
2022-07-28T03:36:30.287Z,100870.94
2022-07-28T03:39:01.641Z,100877.13
2022-07-28T03:41:31.686Z,100873.81
2022-07-28T03:44:00.661Z,100879.78
2022-07-28T03:46:28.985Z,100874.44
2022-07-28T03:48:58.679Z,100875.53
2022-07-28T03:51:28.366Z,100881.09
2022-07-28T03:53:56.380Z,100878.44
2022-07-28T03:56:24.524Z,100881.00
2022-07-28T03:58:52.399Z,100895.19
2022-07-28T04:01:20.401Z,100891.22
2022-07-28T04:03:48.659Z,100888.47
2022-07-28T04:06:18.195Z,100891.75
2022-07-28T04:08:46.548Z,100889.59
2022-07-28T04:11:14.643Z,100889.28
2022-07-28T04:13:42.511Z,100895.06
2022-07-28T04:16:10.385Z,100881.47
2022-07-28T04:18:39.448Z,100889.59
2022-07-28T04:21:07.652Z,100885.50
2022-07-28T04:23:36.867Z,100889.44
2022-07-28T04:26:05.348Z,100875.13
2022-07-28T04:28:33.289Z,100873.31
2022-07-28T04:31:01.362Z,100866.78
2022-07-28T04:33:30.490Z,100878.72
2022-07-28T04:35:58.515Z,100872.09
2022-07-28T04:38:26.366Z,100876.06
2022-07-28T04:40:57.119Z,100867.13
2022-07-28T04:43:24.975Z,100870.53
2022-07-28T04:45:54.583Z,100875.53
2022-07-28T04:48:23.906Z,100878.38
2022-07-28T04:50:52.872Z,100870.25
2022-07-28T04:53:21.386Z,100878.91
2022-07-28T04:55:51.562Z,100874.22
2022-07-28T04:58:21.199Z,100879.47
2022-07-28T05:00:51.819Z,100873.63
2022-07-28T05:03:22.989Z,100876.38
2022-07-28T05:05:54.280Z,100881.97
2022-07-28T05:08:25.666Z,100889.69
2022-07-28T05:10:56.699Z,100885.94
2022-07-28T05:13:31.814Z,100886.44
2022-07-28T05:16:02.398Z,100884.16
2022-07-28T05:18:30.485Z,100897.28
2022-07-28T05:20:58.349Z,100883.72
2022-07-28T05:23:26.485Z,100883.50
2022-07-28T05:25:54.443Z,100885.91
2022-07-28T05:28:22.364Z,100879.91
2022-07-28T05:30:51.848Z,100887.47
2022-07-28T05:33:19.797Z,100874.91
2022-07-28T05:35:54.074Z,100878.09
2022-07-28T05:38:22.459Z,100884.25
2022-07-28T05:40:50.675Z,100890.97
2022-07-28T05:43:18.834Z,100897.50
2022-07-28T05:45:47.579Z,100897.00
2022-07-28T05:48:19.692Z,100894.03
2022-07-28T05:50:48.605Z,100895.25
2022-07-28T05:53:16.686Z,100905.41
2022-07-28T05:56:00.266Z,100899.88
2022-07-28T05:58:30.955Z,100902.91
2022-07-28T06:01:00.141Z,100906.22
2022-07-28T06:03:31.945Z,100906.88
2022-07-28T06:06:15.005Z,100907.19
2022-07-28T06:08:46.783Z,100901.63
2022-07-28T06:11:22.133Z,100902.28
2022-07-28T06:13:52.243Z,100904.47
2022-07-28T06:16:21.550Z,100906.16
2022-07-28T06:18:51.337Z,100907.47
2022-07-28T06:21:19.722Z,100906.66
2022-07-28T06:23:47.605Z,100900.38
2022-07-28T06:26:15.483Z,100908.69
2022-07-28T06:28:43.684Z,100904.34
2022-07-28T06:31:11.564Z,100902.94
2022-07-28T06:33:39.462Z,100910.59
2022-07-28T06:36:08.896Z,100905.81
2022-07-28T06:38:37.230Z,100906.50
2022-07-28T06:41:05.233Z,100911.19
2022-07-28T06:43:36.798Z,100914.59
2022-07-28T06:46:07.254Z,100910.38
2022-07-28T06:48:37.469Z,100909.97
2022-07-28T06:51:06.078Z,100904.59
2022-07-28T06:53:35.358Z,100893.44
2022-07-28T06:56:05.551Z,100894.00
2022-07-28T06:58:34.246Z,100897.38
2022-07-28T07:01:07.302Z,100904.75
2022-07-28T07:03:35.927Z,100907.53
2022-07-28T07:06:04.016Z,100898.72
2022-07-28T07:08:32.044Z,100898.25
2022-07-28T07:11:02.062Z,100894.59
2022-07-28T07:13:30.126Z,100901.69
2022-07-28T07:15:58.053Z,100903.19
2022-07-28T07:18:26.268Z,100898.50
2022-07-28T07:20:54.649Z,100897.66
2022-07-28T07:23:22.758Z,100895.13
2022-07-28T07:25:51.053Z,100905.16
2022-07-28T07:28:20.341Z,100889.16
2022-07-28T07:30:48.437Z,100898.50
2022-07-28T07:33:16.590Z,100889.97
2022-07-28T07:35:44.688Z,100888.22
2022-07-28T07:38:12.727Z,100889.47
2022-07-28T07:40:41.046Z,100893.16
2022-07-28T07:43:08.986Z,100886.53
2022-07-28T07:45:38.309Z,100884.37
2022-07-28T07:48:06.838Z,100883.97
2022-07-28T07:50:35.091Z,100883.63
2022-07-28T07:53:03.036Z,100882.97
2022-07-28T07:55:37.345Z,100878.31
2022-07-28T07:58:06.287Z,100875.97
2022-07-28T08:00:34.749Z,100880.03
2022-07-28T08:03:04.266Z,100882.38
2022-07-28T08:05:39.288Z,100880.69
2022-07-28T08:08:08.214Z,100880.31
2022-07-28T08:10:37.754Z,100874.81
2022-07-28T08:13:06.497Z,100870.16
2022-07-28T08:15:35.503Z,100870.13
2022-07-28T08:18:05.309Z,100874.75
2022-07-28T08:20:33.165Z,100874.28
2022-07-28T08:23:01.299Z,100875.75
2022-07-28T08:25:29.303Z,100879.75
2022-07-28T08:27:57.184Z,100872.75
2022-07-28T08:30:31.803Z,100867.22
2022-07-28T08:33:00.625Z,100869.94
2022-07-28T08:35:33.560Z,100868.81
2022-07-28T08:38:06.477Z,100861.53
2022-07-28T08:40:36.520Z,100862.72
2022-07-28T08:43:10.624Z,100863.16
2022-07-28T08:45:40.948Z,100863.22
2022-07-28T08:48:12.136Z,100867.00
2022-07-28T08:50:44.911Z,100863.66
2022-07-28T08:53:15.055Z,100862.75
2022-07-28T08:55:44.394Z,100863.59
2022-07-28T08:58:13.140Z,100859.34
2022-07-28T09:00:42.304Z,100862.19
2022-07-28T09:03:12.836Z,100856.19
2022-07-28T09:05:43.064Z,100861.81
2022-07-28T09:08:12.826Z,100859.94
2022-07-28T09:10:40.744Z,100853.16
2022-07-28T09:13:08.732Z,100856.91
2022-07-28T09:15:41.784Z,100852.25
2022-07-28T09:18:09.902Z,100858.03
2022-07-28T09:20:38.687Z,100853.28
2022-07-28T09:23:42.613Z,100858.41
2022-07-28T09:26:10.835Z,100856.44
2022-07-28T09:28:51.644Z,100857.56
2022-07-28T09:31:20.502Z,100855.03
2022-07-28T09:34:01.286Z,100857.37
2022-07-28T09:36:30.284Z,100859.06
2022-07-28T09:38:59.778Z,100852.56
2022-07-28T09:41:27.673Z,100851.06
2022-07-28T09:43:57.428Z,100858.66
2022-07-28T09:46:27.049Z,100852.22
2022-07-28T09:48:59.131Z,100849.09
2022-07-28T09:51:28.947Z,100858.75
2022-07-28T09:54:09.781Z,100848.91
2022-07-28T09:56:38.380Z,100847.88
2022-07-28T09:59:08.047Z,100844.19
2022-07-28T10:01:51.923Z,100838.00
2022-07-28T10:04:31.542Z,100844.34
2022-07-28T10:07:05.504Z,100832.75
2022-07-28T10:09:35.140Z,100836.75
2022-07-28T10:12:17.361Z,100832.31
2022-07-28T10:14:47.182Z,100833.87
2022-07-28T10:17:33.444Z,100831.03
2022-07-28T10:20:05.958Z,100837.00
2022-07-28T10:22:42.824Z,100836.22
2022-07-28T10:25:13.593Z,100829.94
2022-07-28T10:27:42.996Z,100830.31
2022-07-28T10:30:12.868Z,100826.94
2022-07-28T10:32:43.120Z,100818.72
2022-07-28T10:35:13.219Z,100812.56
2022-07-28T10:37:48.974Z,100804.19
2022-07-28T10:40:23.263Z,100811.19
2022-07-28T10:42:52.917Z,100802.31
2022-07-28T10:45:21.936Z,100807.09
2022-07-28T10:47:50.898Z,100803.84
2022-07-28T10:50:19.704Z,100801.72
2022-07-28T10:52:50.555Z,100784.16
2022-07-28T10:55:34.767Z,100794.72
2022-07-28T10:58:12.826Z,100785.22
2022-07-28T11:00:59.995Z,100787.41
2022-07-28T11:03:42.793Z,100782.75
2022-07-28T11:06:28.797Z,100799.41
2022-07-28T11:08:58.618Z,100786.28
2022-07-28T11:11:49.899Z,100792.78
2022-07-28T11:14:33.846Z,100793.91
2022-07-28T11:17:23.777Z,100789.94
2022-07-28T11:22:45.295Z,100789.72
2022-07-28T11:25:20.458Z,100790.13
2022-07-28T11:28:05.362Z,100784.59
2022-07-28T11:30:53.811Z,100780.78
2022-07-28T11:33:22.530Z,100776.69
2022-07-28T11:35:56.618Z,100777.22
2022-07-28T11:38:24.598Z,100775.28
2022-07-28T11:40:54.627Z,100777.59
2022-07-28T11:43:39.412Z,100774.38
2022-07-28T11:46:33.368Z,100773.38
2022-07-28T11:49:25.763Z,100769.06
2022-07-28T11:52:21.351Z,100769.88
2022-07-28T11:54:55.625Z,100762.78
2022-07-28T11:57:27.778Z,100764.03
2022-07-28T11:59:59.652Z,100753.62
2022-07-28T12:02:30.152Z,100756.28
2022-07-28T12:05:09.375Z,100760.84
2022-07-28T12:07:46.563Z,100746.84
2022-07-28T12:10:57.629Z,100752.03
2022-07-28T12:13:28.941Z,100747.28
2022-07-28T12:15:58.797Z,100748.50
2022-07-28T12:18:26.816Z,100744.09
2022-07-28T12:20:55.522Z,100744.22
2022-07-28T12:23:39.076Z,100738.09
2022-07-28T12:26:13.736Z,100735.97
2022-07-28T12:28:50.596Z,100738.00
2022-07-28T12:31:19.989Z,100737.84
2022-07-28T12:33:53.664Z,100737.38
2022-07-28T12:36:24.155Z,100730.94
2022-07-28T12:38:53.243Z,100729.13
2022-07-28T12:41:21.539Z,100720.47
2022-07-28T12:43:53.901Z,100713.00
2022-07-28T12:46:28.215Z,100712.38
2022-07-28T12:48:57.921Z,100708.00
2022-07-28T12:51:37.905Z,100706.22
2022-07-28T12:54:07.515Z,100705.59
2022-07-28T12:56:45.639Z,100705.91
2022-07-28T12:59:14.175Z,100709.62
2022-07-28T13:01:51.886Z,100703.91
2022-07-28T13:04:38.582Z,100705.59
2022-07-28T13:07:09.835Z,100705.91
2022-07-28T13:09:41.493Z,100710.34
2022-07-28T13:12:17.352Z,100706.81
2022-07-28T13:14:47.377Z,100704.38
2022-07-28T13:17:17.460Z,100704.22
2022-07-28T13:19:45.597Z,100690.59
2022-07-28T13:22:13.546Z,100688.72
2022-07-28T13:24:41.719Z,100690.06
2022-07-28T13:27:10.623Z,100687.09
2022-07-28T13:29:38.492Z,100683.88
2022-07-28T13:32:07.967Z,100683.19
2022-07-28T13:34:37.360Z,100691.16
2022-07-28T13:37:06.881Z,100678.09
2022-07-28T13:39:34.916Z,100684.09
2022-07-28T13:42:05.492Z,100674.94
2022-07-28T13:44:36.073Z,100675.38
2022-07-28T13:47:05.992Z,100674.66
2022-07-28T13:49:37.355Z,100672.59
2022-07-28T13:52:13.173Z,100668.09
2022-07-28T13:54:41.572Z,100656.38
2022-07-28T13:57:09.447Z,100657.41
2022-07-28T13:59:38.234Z,100654.94
2022-07-28T14:02:15.282Z,100665.59
2022-07-28T14:04:45.900Z,100649.12
2022-07-28T14:07:20.593Z,100652.09
2022-07-28T14:09:51.129Z,100649.38
2022-07-28T14:12:19.216Z,100649.09
2022-07-28T14:14:48.525Z,100644.09
2022-07-28T14:20:12.292Z,100641.41
2022-07-28T14:22:42.548Z,100636.06
2022-07-28T14:25:11.417Z,100635.72
2022-07-28T14:27:42.436Z,100637.66
2022-07-28T14:30:11.914Z,100628.75
2022-07-28T14:32:40.401Z,100623.41
2022-07-28T14:35:09.237Z,100622.47
2022-07-28T14:38:04.832Z,100625.88
2022-07-28T14:40:27.005Z,100625.38
2022-07-28T14:42:54.987Z,100628.13
2022-07-28T14:45:23.103Z,100626.09
2022-07-28T14:47:51.219Z,100619.00
2022-07-28T14:50:19.164Z,100619.00
2022-07-28T14:52:47.279Z,100617.16
2022-07-28T14:55:15.665Z,100612.84
2022-07-28T14:57:50.075Z,100606.50
2022-07-28T15:00:24.170Z,100607.94
2022-07-28T15:02:53.230Z,100617.44
2022-07-28T15:05:23.089Z,100621.34
2022-07-28T15:07:52.755Z,100614.19
2022-07-28T15:10:21.475Z,100612.75
2022-07-28T15:12:51.897Z,100613.53
2022-07-28T15:15:26.376Z,100609.47
2022-07-28T15:17:55.897Z,100610.53
2022-07-28T15:20:24.444Z,100611.06
2022-07-28T15:22:52.322Z,100610.84
2022-07-28T15:25:20.540Z,100603.84
2022-07-28T15:27:50.096Z,100599.94
2022-07-28T15:30:18.506Z,100605.31
2022-07-28T15:32:56.211Z,100609.87
2022-07-28T15:35:25.837Z,100605.09
2022-07-28T15:37:54.200Z,100601.41
2022-07-28T15:40:22.839Z,100605.09
2022-07-28T15:42:52.910Z,100602.03
2022-07-28T15:45:21.029Z,100600.69
2022-07-28T15:47:48.969Z,100598.44
2022-07-28T15:50:17.314Z,100598.94
2022-07-28T15:52:45.209Z,100592.22
2022-07-28T15:55:13.229Z,100594.00
2022-07-28T15:57:41.434Z,100592.59
2022-07-28T16:00:11.703Z,100587.50
2022-07-28T16:02:39.970Z,100584.66
2022-07-28T16:05:08.365Z,100586.00
2022-07-28T16:07:36.417Z,100586.28
2022-07-28T16:10:05.126Z,100585.19
2022-07-28T16:12:33.369Z,100589.13
2022-07-28T16:15:01.325Z,100580.78
2022-07-28T16:17:30.895Z,100576.03
2022-07-28T16:20:02.320Z,100577.16
2022-07-28T16:22:30.867Z,100574.94
2022-07-28T16:24:58.830Z,100575.09
2022-07-28T16:27:26.769Z,100585.87
2022-07-28T16:29:55.069Z,100583.81
2022-07-28T16:32:22.941Z,100578.44
2022-07-28T16:34:53.805Z,100586.56
2022-07-28T16:37:22.469Z,100585.34
2022-07-28T16:39:50.399Z,100585.56
2022-07-28T16:42:18.416Z,100583.13
2022-07-28T16:44:47.425Z,100581.69
2022-07-28T16:47:15.497Z,100584.84
2022-07-28T16:49:45.942Z,100588.81
2022-07-28T16:52:16.092Z,100585.25
2022-07-28T16:54:44.011Z,100582.13
2022-07-28T16:57:13.361Z,100581.41
2022-07-28T16:59:48.353Z,100586.72
2022-07-28T17:02:17.877Z,100587.84
2022-07-28T17:04:46.211Z,100581.44
2022-07-28T17:07:14.309Z,100577.66
2022-07-28T17:09:44.183Z,100570.56
2022-07-28T17:12:12.530Z,100578.44
2022-07-28T17:14:40.402Z,100588.00
2022-07-28T17:17:08.302Z,100579.28
2022-07-28T17:19:36.422Z,100579.41
2022-07-28T17:22:06.926Z,100579.75
2022-07-28T17:24:34.892Z,100568.41
2022-07-28T17:27:36.591Z,100580.63
2022-07-28T17:29:53.127Z,100574.50
2022-07-28T17:32:21.210Z,100578.63
2022-07-28T17:34:49.171Z,100583.66
2022-07-28T17:37:17.032Z,100575.75
2022-07-28T17:39:45.249Z,100577.34
2022-07-28T17:42:14.589Z,100575.22
2022-07-28T17:44:42.608Z,100575.87
2022-07-28T17:47:10.711Z,100574.06
2022-07-28T17:49:43.419Z,100580.84
2022-07-28T17:52:13.500Z,100578.00
2022-07-28T17:54:59.040Z,100576.56
2022-07-28T17:57:31.002Z,100572.69
2022-07-28T18:00:06.890Z,100570.16
2022-07-28T18:02:39.963Z,100574.00
2022-07-28T18:05:10.133Z,100576.25
2022-07-28T18:07:50.963Z,100573.63
2022-07-28T18:10:25.206Z,100574.72
2022-07-28T18:12:56.606Z,100569.88
2022-07-28T18:15:24.670Z,100573.00
2022-07-28T18:17:55.125Z,100567.66
2022-07-28T18:20:24.550Z,100565.59
2022-07-28T18:22:52.718Z,100565.31
2022-07-28T18:25:21.161Z,100570.75
2022-07-28T18:27:49.086Z,100567.72
2022-07-28T18:30:19.460Z,100571.25
2022-07-28T18:32:47.502Z,100575.34
2022-07-28T18:35:15.711Z,100571.81
2022-07-28T18:37:45.870Z,100573.63
2022-07-28T18:40:15.512Z,100568.34
2022-07-28T18:42:44.127Z,100570.00
2022-07-28T18:45:13.554Z,100570.38
2022-07-28T18:47:46.398Z,100569.31
2022-07-28T18:50:31.063Z,100568.81
2022-07-28T18:53:00.259Z,100573.16
2022-07-28T18:55:28.557Z,100571.34
2022-07-28T18:57:59.063Z,100574.47
2022-07-28T19:00:27.146Z,100572.53
2022-07-28T19:02:56.748Z,100579.25
2022-07-28T19:05:24.834Z,100566.06
2022-07-28T19:07:52.829Z,100577.47
2022-07-28T19:10:21.283Z,100576.50
2022-07-28T19:12:50.792Z,100577.81
2022-07-28T19:15:18.912Z,100582.87
2022-07-28T19:17:47.143Z,100587.75
2022-07-28T19:20:36.511Z,100590.22
2022-07-28T19:23:05.587Z,100591.41
2022-07-28T19:25:36.110Z,100597.03
2022-07-28T19:28:04.777Z,100594.81
2022-07-28T19:30:32.760Z,100602.66
2022-07-28T19:33:00.992Z,100603.50
2022-07-28T19:35:29.187Z,100601.16
2022-07-28T19:38:00.120Z,100604.06
2022-07-28T19:40:29.734Z,100608.34
2022-07-28T19:42:58.031Z,100613.75
2022-07-28T19:45:26.589Z,100611.88
2022-07-28T19:47:54.887Z,100616.25
2022-07-28T19:50:23.715Z,100615.25
2022-07-28T19:52:51.546Z,100616.75
2022-07-28T19:55:21.805Z,100620.63
2022-07-28T19:57:50.072Z,100624.84
2022-07-28T20:00:18.259Z,100621.47
2022-07-28T20:02:46.550Z,100630.41
2022-07-28T20:05:15.423Z,100630.72
2022-07-28T20:07:43.385Z,100627.50
2022-07-28T20:10:11.490Z,100632.72
2022-07-28T20:12:41.915Z,100630.81
2022-07-28T20:15:10.603Z,100641.72
2022-07-28T20:17:39.840Z,100636.25
2022-07-28T20:20:10.051Z,100643.94
2022-07-28T20:22:41.192Z,100631.75
2022-07-28T20:25:11.021Z,100637.94
2022-07-28T20:27:41.385Z,100638.41
2022-07-28T20:30:10.564Z,100639.41
2022-07-28T20:32:38.980Z,100640.22
2022-07-28T20:35:10.443Z,100633.97
2022-07-28T20:37:38.651Z,100639.38
2022-07-28T20:40:08.274Z,100642.25
2022-07-28T20:42:36.729Z,100641.06
2022-07-28T20:45:07.600Z,100637.34
2022-07-28T20:47:35.856Z,100640.91
2022-07-28T20:50:05.258Z,100643.09
2022-07-28T20:52:33.884Z,100640.28
2022-07-28T20:55:01.854Z,100633.66
2022-07-28T20:57:29.958Z,100637.84
2022-07-28T20:59:57.974Z,100635.84
2022-07-28T21:02:27.195Z,100637.19
2022-07-28T21:04:55.386Z,100631.34
2022-07-28T21:08:04.661Z,100634.03
2022-07-28T21:10:12.179Z,100630.97
2022-07-28T21:12:40.408Z,100636.91
2022-07-28T21:15:09.903Z,100641.97
2022-07-28T21:17:39.472Z,100644.06
2022-07-28T21:20:08.203Z,100645.78
2022-07-28T21:22:36.138Z,100646.87
2022-07-28T21:25:04.641Z,100652.72
2022-07-28T21:27:52.611Z,100655.72
2022-07-28T21:30:20.010Z,100647.72
2022-07-28T21:32:57.299Z,100659.69
2022-07-28T21:35:25.584Z,100654.63
2022-07-28T21:37:53.600Z,100656.09
2022-07-28T21:40:21.567Z,100657.59
2022-07-28T21:42:49.805Z,100659.44
2022-07-28T21:45:17.863Z,100657.69
2022-07-28T21:47:46.190Z,100658.22
2022-07-28T21:50:16.065Z,100657.84
2022-07-28T21:52:43.934Z,100665.84
2022-07-28T21:55:13.059Z,100661.22
2022-07-28T21:57:41.346Z,100664.06
2022-07-28T22:00:11.955Z,100666.25
2022-07-28T22:02:41.112Z,100664.59
2022-07-28T22:05:10.063Z,100668.03
2022-07-28T22:07:39.397Z,100670.47
2022-07-28T22:10:08.207Z,100672.09
2022-07-28T22:12:36.378Z,100672.69
2022-07-28T22:15:04.907Z,100679.38
2022-07-28T22:17:33.019Z,100688.75
2022-07-28T22:20:01.013Z,100693.47
2022-07-28T22:22:29.076Z,100687.53
2022-07-28T22:24:58.497Z,100675.50
2022-07-28T22:27:26.471Z,100683.88
2022-07-28T22:29:54.469Z,100685.31
2022-07-28T22:32:27.030Z,100690.84
2022-07-28T22:34:57.963Z,100691.00
2022-07-28T22:37:26.238Z,100691.28
2022-07-28T22:39:54.209Z,100696.12
2022-07-28T22:42:23.527Z,100706.91
2022-07-28T22:44:51.712Z,100710.44
2022-07-28T22:47:19.670Z,100709.75
2022-07-28T22:49:47.837Z,100713.44
2022-07-28T22:52:16.036Z,100716.28
2022-07-28T22:54:44.016Z,100711.91
2022-07-28T22:57:12.071Z,100707.19
2022-07-28T22:59:42.307Z,100713.97
2022-07-28T23:02:15.245Z,100710.44
2022-07-28T23:04:46.921Z,100722.22
2022-07-28T23:07:17.605Z,100716.97
2022-07-28T23:09:46.611Z,100723.38
2022-07-28T23:12:14.599Z,100729.91
2022-07-28T23:14:44.589Z,100726.47
2022-07-28T23:17:12.775Z,100719.56
2022-07-28T23:19:40.638Z,100720.84
2022-07-28T23:22:08.520Z,100719.25
2022-07-28T23:24:36.692Z,100717.69
2022-07-28T23:27:04.875Z,100718.00
2022-07-28T23:29:32.832Z,100732.47
2022-07-28T23:32:02.403Z,100729.06
2022-07-28T23:34:30.621Z,100723.94
2022-07-28T23:36:58.496Z,100716.88
2022-07-28T23:39:26.700Z,100712.09
2022-07-28T23:41:54.585Z,100695.66
2022-07-28T23:44:22.785Z,100693.81
2022-07-28T23:46:51.006Z,100693.81
2022-07-28T23:49:20.287Z,100705.28
2022-07-28T23:51:48.878Z,100701.75
2022-07-28T23:54:17.799Z,100704.97
2022-07-28T23:56:45.995Z,100691.53
2022-07-28T23:59:14.751Z,100694.09
